Time;durP1;ratioP1;P1;durP2;ratioP2;P2;SDS_P1;SDS_P2;PMS_P1;PMS_P2;Temp;Humidity;BMP_temperature;BMP_pressure;BME280_temperature;BME280_humidity;BME280_pressure;Samples;Min_cycle;Max_cycle;Signal;HPM_P1;HPM_P2
2022/04/29 00:01:57;;;;;;;13.93;12.70;;;;;;;10.13;69.73;93305.41;5070641;28;20279;-85
2022/04/29 00:04:23;;;;;;;13.87;12.67;;;;;;;10.28;69.79;93315.88;5070625;28;20181;-83
2022/04/29 00:06:50;;;;;;;15.50;14.10;;;;;;;10.22;69.48;93311.69;5070109;28;20225;-84
2022/04/29 00:09:15;;;;;;;14.47;13.20;;;;;;;9.98;70.02;93294.91;5071230;28;20197;-84
2022/04/29 00:11:41;;;;;;;15.23;13.93;;;;;;;10.09;70.22;93311.38;5066775;28;20248;-86
2022/04/29 00:14:06;;;;;;;14.23;13.03;;;;;;;9.90;70.77;93292.78;5066033;28;20212;-85
2022/04/29 00:16:32;;;;;;;13.77;12.63;;;;;;;9.78;70.31;93258.34;5070591;28;20232;-86
2022/04/29 00:18:57;;;;;;;15.07;13.77;;;;;;;10.15;70.44;93305.94;5050695;28;20269;-84
2022/04/29 00:21:23;;;;;;;13.77;12.67;;;;;;;9.97;70.86;93292.56;5069156;28;20209;-84
2022/04/29 00:23:49;;;;;;;12.40;11.30;;;;;;;9.95;70.81;93295.41;5070251;28;20176;-84
2022/04/29 00:26:14;;;;;;;14.57;13.47;;;;;;;9.97;70.99;93301.16;5070562;28;20218;-81
2022/04/29 00:28:39;;;;;;;14.33;13.23;;;;;;;10.17;70.59;93303.84;5070176;28;20181;-83
2022/04/29 00:31:05;;;;;;;14.03;13.03;;;;;;;10.14;71.10;93299.16;5068444;28;20719;-84
2022/04/29 00:33:30;;;;;;;13.43;12.27;;;;;;;9.91;71.52;93297.00;5070208;28;20197;-85
2022/04/29 00:35:56;;;;;;;14.67;13.20;;;;;;;10.03;71.29;93301.97;5069664;28;20227;-85
2022/04/29 00:38:21;;;;;;;14.80;13.33;;;;;;;9.86;70.71;93278.72;5070796;28;20285;-84
2022/04/29 00:40:48;;;;;;;15.03;13.83;;;;;;;9.88;71.01;93283.66;5069186;28;20217;-85
2022/04/29 00:43:14;;;;;;;13.30;12.30;;;;;;;9.85;71.26;93279.75;5070465;28;20177;-82
2022/04/29 00:45:40;;;;;;;12.90;11.93;;;;;;;9.97;71.44;93300.38;5070069;28;20220;-83
2022/04/29 00:48:08;;;;;;;12.53;11.43;;;;;;;9.96;71.31;93296.97;5069031;28;20189;-83
2022/04/29 00:50:34;;;;;;;14.43;13.03;;;;;;;9.89;70.98;93280.00;5068745;28;20193;-83
2022/04/29 00:53:01;;;;;;;14.07;12.93;;;;;;;10.02;71.27;93290.75;5069941;28;20212;-84
2022/04/29 00:55:28;;;;;;;14.60;13.40;;;;;;;10.03;71.95;93294.94;5070175;28;20201;-84
2022/04/29 00:57:57;;;;;;;14.40;13.13;;;;;;;10.04;71.99;93295.72;5069071;28;20232;-85
2022/04/29 01:00:23;;;;;;;13.90;12.80;;;;;;;9.99;72.38;93287.88;5069021;28;20237;-83
2022/04/29 01:02:51;;;;;;;13.30;12.30;;;;;;;10.04;72.21;93283.44;5069709;28;20240;-82
2022/04/29 01:05:21;;;;;;;14.27;13.07;;;;;;;9.98;72.22;93279.25;5068817;28;20185;-81
2022/04/29 01:07:47;;;;;;;14.07;12.87;;;;;;;9.68;72.79;93251.28;5067996;28;20251;-82
2022/04/29 01:10:15;;;;;;;13.93;12.73;;;;;;;9.67;73.24;93251.53;5060099;28;20189;-81
2022/04/29 01:12:43;;;;;;;13.83;12.63;;;;;;;9.49;73.28;93252.03;5068683;28;20225;-81
2022/04/29 01:15:14;;;;;;;14.40;13.20;;;;;;;9.80;73.60;93277.91;5051718;28;20193;-81
2022/04/29 01:17:43;;;;;;;13.03;11.83;;;;;;;9.89;72.52;93272.97;5068696;28;20285;-81
2022/04/29 01:20:11;;;;;;;13.97;12.87;;;;;;;9.71;72.32;93253.38;5068025;28;20205;-82
2022/04/29 01:22:37;;;;;;;13.47;12.37;;;;;;;9.85;72.70;93276.38;5068102;28;20233;-82
2022/04/29 01:25:03;;;;;;;14.27;13.07;;;;;;;9.78;72.43;93269.56;5069317;28;20257;-81
2022/04/29 01:27:29;;;;;;;13.77;12.67;;;;;;;9.94;71.20;93262.56;5067311;28;20225;-81
2022/04/29 01:30:07;;;;;;;13.47;12.37;;;;;;;10.00;71.09;93271.97;5068617;28;20208;-82
2022/04/29 01:32:34;;;;;;;13.07;12.13;;;;;;;9.97;71.79;93262.06;5068193;28;20263;-82
2022/04/29 01:35:00;;;;;;;13.13;12.13;;;;;;;9.94;71.34;93269.59;5069467;28;21311;-81
2022/04/29 01:37:26;;;;;;;13.87;12.77;;;;;;;9.81;71.28;93257.84;5067742;28;20237;-81
2022/04/29 01:39:51;;;;;;;13.67;12.67;;;;;;;9.71;71.85;93242.19;5068144;28;20219;-82
2022/04/29 01:42:17;;;;;;;11.67;10.77;;;;;;;9.93;71.17;93265.44;5068066;28;20285;-80
2022/04/29 01:44:43;;;;;;;14.23;13.03;;;;;;;9.79;71.80;93260.69;5069309;28;20185;-81
2022/04/29 01:47:08;;;;;;;13.20;11.97;;;;;;;9.71;72.40;93263.81;5068047;28;20244;-81
2022/04/29 01:49:34;;;;;;;14.17;12.70;;;;;;;9.79;71.58;93244.25;5051373;28;20201;-81
2022/04/29 01:52:00;;;;;;;13.33;12.23;;;;;;;9.88;72.28;93268.81;5068046;28;20244;-82
2022/04/29 01:54:25;;;;;;;13.60;12.47;;;;;;;9.81;72.09;93252.63;5067946;28;20203;-81
2022/04/29 01:56:52;;;;;;;13.33;12.17;;;;;;;9.71;72.79;93248.16;5050669;28;20221;-81
2022/04/29 01:59:19;;;;;;;12.37;11.37;;;;;;;9.78;73.14;93276.59;5068861;28;20219;-81
2022/04/29 02:01:44;;;;;;;11.80;11.00;;;;;;;9.87;72.87;93277.66;5049885;28;20941;-79
2022/04/29 02:04:10;;;;;;;14.23;13.03;;;;;;;9.44;72.92;93215.50;5066931;28;20170;-82
2022/04/29 02:06:37;;;;;;;13.67;12.67;;;;;;;9.75;73.24;93248.44;5067739;28;20232;-81
2022/04/29 02:09:03;;;;;;;12.83;11.83;;;;;;;9.77;74.04;93267.22;5067965;28;20197;-80
2022/04/29 02:11:29;;;;;;;12.30;11.30;;;;;;;9.76;74.28;93276.84;5068636;28;20239;-81
2022/04/29 02:13:54;;;;;;;14.07;13.03;;;;;;;9.65;74.84;93277.06;5068319;28;20182;-81
2022/04/29 02:16:20;;;;;;;12.10;11.10;;;;;;;9.67;73.96;93261.97;5068090;28;20303;-82
2022/04/29 02:18:45;;;;;;;14.13;13.03;;;;;;;9.72;73.97;93270.59;5068197;28;20190;-83
2022/04/29 02:21:11;;;;;;;12.63;11.63;;;;;;;9.75;74.31;93266.69;5069686;28;20216;-82
2022/04/29 02:23:36;;;;;;;13.87;12.80;;;;;;;9.59;73.89;93249.44;5068844;28;20200;-81
2022/04/29 02:26:02;;;;;;;13.43;12.53;;;;;;;9.46;74.81;93244.72;5066964;28;20228;-80
2022/04/29 02:28:27;;;;;;;12.23;11.23;;;;;;;9.63;74.52;93250.50;5067863;28;20865;-81
2022/04/29 02:30:55;;;;;;;14.30;13.20;;;;;;;9.49;75.26;93275.47;5067968;28;20225;-81
2022/04/29 02:33:21;;;;;;;12.73;11.73;;;;;;;9.45;75.79;93258.75;5068210;28;20204;-81
2022/04/29 02:35:46;;;;;;;14.70;13.50;;;;;;;9.54;75.99;93286.69;5068049;28;20190;-81
2022/04/29 02:38:12;;;;;;;13.83;12.73;;;;;;;9.50;76.68;93283.03;5067591;28;20727;-81
2022/04/29 02:40:37;;;;;;;13.40;12.23;;;;;;;9.39;77.23;93283.25;5068321;28;20216;-81
2022/04/29 02:43:03;;;;;;;13.70;12.60;;;;;;;9.39;77.56;93278.81;5068623;28;20980;-81
2022/04/29 02:45:28;;;;;;;13.73;12.53;;;;;;;9.48;76.91;93266.06;5068976;28;20765;-81
2022/04/29 02:47:53;;;;;;;14.03;12.93;;;;;;;9.48;77.37;93269.47;5067446;28;20337;-81
2022/04/29 02:50:19;;;;;;;14.43;13.20;;;;;;;9.45;77.67;93277.00;5041647;28;20197;-80
2022/04/29 02:52:44;;;;;;;14.67;13.37;;;;;;;9.39;77.97;93275.41;5068251;28;20348;-81
2022/04/29 02:55:10;;;;;;;13.77;12.57;;;;;;;9.33;77.81;93266.00;5068882;28;20198;-81
2022/04/29 02:57:35;;;;;;;13.73;12.60;;;;;;;9.32;77.76;93259.25;5067281;28;20247;-82
2022/04/29 03:00:01;;;;;;;13.17;11.90;;;;;;;9.32;77.49;93274.88;5068246;28;20243;-82
2022/04/29 03:02:27;;;;;;;13.27;12.17;;;;;;;9.41;77.82;93289.78;5068306;28;20260;-81
2022/04/29 03:04:52;;;;;;;13.13;12.03;;;;;;;9.54;77.10;93294.50;5050944;28;20213;-81
2022/04/29 03:07:18;;;;;;;13.97;12.87;;;;;;;9.47;78.36;93293.19;5070050;28;20289;-82
2022/04/29 03:09:43;;;;;;;14.27;13.10;;;;;;;9.26;79.23;93281.13;5071522;28;20212;-83
2022/04/29 03:12:12;;;;;;;12.53;11.57;;;;;;;9.19;79.73;93255.28;5054049;28;20221;-81
2022/04/29 03:14:38;;;;;;;12.90;11.73;;;;;;;9.48;79.34;93289.53;5072329;28;20200;-81
2022/04/29 03:17:04;;;;;;;13.73;12.63;;;;;;;9.47;78.98;93288.75;5067725;28;20230;-82
2022/04/29 03:19:30;;;;;;;11.37;10.47;;;;;;;9.37;78.93;93288.69;5072741;28;20205;-79
2022/04/29 03:21:55;;;;;;;12.07;10.97;;;;;;;9.36;78.44;93278.53;5070583;28;20237;-81
2022/04/29 03:24:21;;;;;;;12.90;12.00;;;;;;;9.47;77.82;93285.38;5071124;28;20323;-81
2022/04/29 03:26:47;;;;;;;13.53;12.43;;;;;;;9.67;77.97;93288.84;5070285;28;20231;-82
2022/04/29 03:29:13;;;;;;;12.47;11.57;;;;;;;9.55;77.79;93295.31;5071768;28;20194;-80
2022/04/29 03:31:38;;;;;;;12.70;11.70;;;;;;;9.54;77.67;93289.28;5054724;28;20247;-81
2022/04/29 03:34:04;;;;;;;12.93;11.97;;;;;;;9.57;77.81;93285.41;5071688;28;20197;-83
2022/04/29 03:36:30;;;;;;;12.70;11.80;;;;;;;9.69;77.29;93293.78;5072118;28;20252;-81
2022/04/29 03:38:56;;;;;;;12.00;11.17;;;;;;;9.70;76.98;93292.75;5070174;28;20289;-84
2022/04/29 03:41:22;;;;;;;12.33;11.40;;;;;;;9.63;77.79;93300.03;5070532;28;20225;-81
2022/04/29 03:43:48;;;;;;;12.03;11.23;;;;;;;9.63;77.44;93297.41;5069938;28;20194;-82
2022/04/29 03:46:14;;;;;;;11.90;11.07;;;;;;;9.60;76.40;93280.44;5071437;28;20221;-79
2022/04/29 03:51:24;;;;;;;10.47;9.77;;;;;;;9.88;75.72;93300.13;5070004;28;20248;-82
2022/04/29 03:53:49;;;;;;;10.93;10.13;;;;;;;9.90;76.03;93298.00;5068596;28;20182;-81
2022/04/29 03:56:17;;;;;;;12.30;11.40;;;;;;;9.87;76.03;93300.38;5070554;28;20251;-82
2022/04/29 03:58:42;;;;;;;11.50;10.70;;;;;;;9.85;76.78;93297.22;5070921;28;20189;-87
2022/04/29 04:01:08;;;;;;;11.67;10.80;;;;;;;9.72;77.31;93285.44;5071186;28;20229;-85
2022/04/29 04:03:33;;;;;;;11.20;10.50;;;;;;;9.84;77.18;93296.44;5054421;28;20201;-91
2022/04/29 04:08:42;;;;;;;12.13;11.23;;;;;;;9.63;80.03;93310.47;5071267;28;20251;-84
2022/04/29 04:11:08;;;;;;;11.00;10.30;;;;;;;9.58;80.51;93295.59;5070595;28;20221;-87
2022/04/29 04:13:33;;;;;;;12.03;11.23;;;;;;;9.62;80.41;93312.28;5069477;28;20189;-83
2022/04/29 04:15:58;;;;;;;12.33;11.47;;;;;;;9.65;80.21;93305.75;5069056;28;20311;-86
2022/04/29 04:18:24;;;;;;;11.60;10.80;;;;;;;9.75;79.90;93311.81;5068702;28;20178;-83
2022/04/29 04:20:49;;;;;;;12.47;11.47;;;;;;;9.66;79.20;93286.47;5067895;28;20279;-82
2022/04/29 04:23:15;;;;;;;12.47;11.33;;;;;;;9.92;78.62;93305.56;5070154;28;20217;-85
2022/04/29 04:25:41;;;;;;;11.67;10.80;;;;;;;9.92;77.91;93295.94;5068502;28;20184;-82
2022/04/29 04:28:06;;;;;;;13.10;11.97;;;;;;;10.09;77.63;93314.78;5068946;28;20978;-81
2022/04/29 04:30:32;;;;;;;12.37;11.47;;;;;;;10.05;77.91;93312.94;5069196;28;20197;-78
2022/04/29 04:32:57;;;;;;;14.13;12.93;;;;;;;10.23;77.15;93315.84;5069664;28;20271;-82
2022/04/29 04:35:22;;;;;;;13.10;11.97;;;;;;;10.21;76.71;93310.09;5070352;28;20229;-79
2022/04/29 04:37:48;;;;;;;12.73;11.83;;;;;;;10.40;76.73;93323.44;5066134;28;20237;-77
2022/04/29 04:40:14;;;;;;;12.80;11.90;;;;;;;10.25;76.11;93295.50;5069432;28;20213;-80
2022/04/29 04:42:44;;;;;;;12.70;11.80;;;;;;;10.45;76.27;93326.06;5050723;28;20221;-81
2022/04/29 04:45:10;;;;;;;13.30;12.27;;;;;;;10.48;75.74;93326.34;5069092;28;20196;-77
2022/04/29 04:47:35;;;;;;;14.07;12.97;;;;;;;10.64;75.56;93324.50;5068913;28;20230;-76
2022/04/29 04:50:01;;;;;;;14.73;13.57;;;;;;;10.71;75.05;93310.16;5069017;28;20207;-78
2022/04/29 04:52:26;;;;;;;13.30;12.30;;;;;;;10.71;74.53;93320.59;5069027;28;20225;-83
2022/04/29 04:54:52;;;;;;;13.23;12.20;;;;;;;10.59;74.70;93304.41;5069217;28;20182;-82
2022/04/29 04:57:17;;;;;;;12.07;11.07;;;;;;;10.43;74.92;93297.59;5065903;28;20227;-82
2022/04/29 04:59:43;;;;;;;13.77;12.67;;;;;;;10.61;75.27;93307.56;5065560;28;20210;-80
2022/04/29 05:02:08;;;;;;;12.67;11.73;;;;;;;11.04;74.04;93320.06;5068733;28;20218;-81
2022/04/29 05:04:34;;;;;;;14.93;13.53;;;;;;;11.17;73.61;93316.88;5069720;28;20212;-85
2022/04/29 05:06:59;;;;;;;13.83;12.63;;;;;;;11.23;73.14;93315.84;5068593;28;20234;-80
2022/04/29 05:09:25;;;;;;;14.00;12.97;;;;;;;10.68;75.01;93318.50;5069420;28;20221;-81
2022/04/29 05:11:50;;;;;;;13.73;12.63;;;;;;;11.23;73.56;93325.50;5068377;28;20227;-80
2022/04/29 05:14:16;;;;;;;14.50;13.07;;;;;;;11.51;72.30;93311.06;5068560;28;20193;-80
2022/04/29 05:16:41;;;;;;;14.63;13.43;;;;;;;11.54;71.77;93297.44;5068198;28;20227;-80
2022/04/29 05:19:06;;;;;;;13.07;12.07;;;;;;;11.74;71.29;93328.78;5068479;28;20190;-80
2022/04/29 05:21:32;;;;;;;14.17;12.87;;;;;;;11.66;71.97;93311.06;5068082;28;20252;-80
2022/04/29 05:23:58;;;;;;;14.13;12.83;;;;;;;12.37;70.53;93320.13;5067978;28;20249;-82
2022/04/29 05:26:23;;;;;;;13.37;12.27;;;;;;;11.95;69.72;93294.44;5069221;28;20238;-80
2022/04/29 05:28:48;;;;;;;15.00;13.90;;;;;;;11.69;70.41;93307.91;5067510;28;20216;-77
2022/04/29 05:31:15;;;;;;;15.40;14.07;;;;;;;11.97;70.19;93317.72;5043135;28;20235;-80
2022/04/29 05:33:40;;;;;;;14.67;13.47;;;;;;;11.91;70.00;93329.25;5067383;28;20279;-80
2022/04/29 05:36:08;;;;;;;13.10;12.00;;;;;;;13.31;66.40;93317.78;5066462;28;20820;-80
2022/04/29 05:44:03;;;;;;;14.83;13.53;;;;;;;12.22;68.46;93320.97;5068228;28;20224;-80
2022/04/29 05:46:29;;;;;;;13.70;12.63;;;;;;;12.34;69.39;93329.28;5067687;28;20241;-78
2022/04/29 05:48:54;;;;;;;15.10;13.73;;;;;;;12.34;68.67;93326.66;5069079;28;20193;-80
2022/04/29 05:51:20;;;;;;;14.23;13.13;;;;;;;12.31;69.02;93329.06;5068279;28;20236;-81
2022/04/29 05:53:45;;;;;;;15.43;14.00;;;;;;;12.43;68.44;93332.13;5068589;28;20197;-81
2022/04/29 05:56:11;;;;;;;14.27;12.87;;;;;;;12.11;69.82;93334.41;5067585;28;20272;-79
2022/04/29 05:58:36;;;;;;;14.17;12.83;;;;;;;11.77;70.53;93334.28;5068978;28;20236;-82
2022/04/29 06:01:02;;;;;;;14.77;13.47;;;;;;;12.25;70.31;93336.13;5067868;28;20217;-82
2022/04/29 06:03:28;;;;;;;14.50;13.20;;;;;;;11.92;69.95;93339.44;5069610;28;20213;-83
2022/04/29 06:05:53;;;;;;;14.37;13.07;;;;;;;12.34;69.29;93344.22;5066431;28;20701;-83
2022/04/29 06:08:18;;;;;;;13.40;12.37;;;;;;;12.02;70.26;93346.47;5066825;28;20210;-83
2022/04/29 06:10:44;;;;;;;14.53;13.27;;;;;;;11.67;71.31;93338.78;5067274;28;20185;-82
2022/04/29 06:13:10;;;;;;;13.53;12.53;;;;;;;11.83;70.36;93338.44;5068995;28;20193;-81
2022/04/29 06:15:35;;;;;;;14.97;13.57;;;;;;;11.46;72.12;93348.47;5067713;28;20185;-82
2022/04/29 06:18:02;;;;;;;15.17;13.53;;;;;;;11.59;71.28;93344.50;5068725;28;20197;-78
2022/04/29 06:20:29;;;;;;;14.83;13.40;;;;;;;11.51;71.81;93326.75;5067730;28;20236;-80
2022/04/29 06:22:55;;;;;;;15.40;14.00;;;;;;;12.19;70.60;93352.94;5067626;28;20227;-83
2022/04/29 06:25:20;;;;;;;12.97;11.87;;;;;;;12.36;68.84;93347.34;5069017;28;20216;-84
2022/04/29 06:27:46;;;;;;;13.53;12.33;;;;;;;11.86;70.97;93322.19;5068330;28;20210;-83
2022/04/29 06:30:12;;;;;;;13.47;12.27;;;;;;;12.15;70.07;93354.53;5069058;28;20241;-83
2022/04/29 06:32:38;;;;;;;14.30;13.07;;;;;;;12.32;69.02;93357.59;5051104;28;20239;-79
2022/04/29 06:35:06;;;;;;;12.57;11.47;;;;;;;12.29;69.04;93347.66;5066867;28;20224;-82
2022/04/29 06:37:32;;;;;;;14.37;13.07;;;;;;;12.70;68.20;93356.06;5066951;28;20221;-84
2022/04/29 06:39:58;;;;;;;14.23;13.03;;;;;;;12.23;67.69;93309.44;5065407;28;20213;-82
2022/04/29 06:42:23;;;;;;;14.63;13.43;;;;;;;12.51;68.35;93349.88;5071762;28;20237;-80
2022/04/29 06:44:49;;;;;;;13.47;12.40;;;;;;;12.36;68.00;93355.19;5072845;28;20182;-88
2022/04/29 06:47:14;;;;;;;14.13;12.93;;;;;;;12.25;67.93;93353.72;5072039;28;20240;-86
2022/04/29 06:49:39;;;;;;;13.17;12.17;;;;;;;11.79;68.64;93336.63;5072602;28;20202;-86
2022/04/29 06:52:05;;;;;;;15.00;13.70;;;;;;;12.44;67.23;93352.78;5071710;28;20225;-86
2022/04/29 06:54:30;;;;;;;14.27;13.07;;;;;;;12.62;67.16;93351.38;5071438;28;20185;-87
2022/04/29 06:56:56;;;;;;;13.30;12.23;;;;;;;12.43;65.88;93359.09;5071657;28;20237;-87
2022/04/29 06:59:22;;;;;;;13.77;12.67;;;;;;;12.53;67.32;93355.59;5069303;28;20271;-86
2022/04/29 07:01:47;;;;;;;13.77;12.77;;;;;;;12.70;65.50;93332.47;5071841;28;20233;-88
2022/04/29 07:04:13;;;;;;;14.07;12.97;;;;;;;12.84;65.32;93343.91;5070358;28;20259;-86
2022/04/29 07:06:38;;;;;;;13.93;12.93;;;;;;;13.38;62.86;93354.97;5069620;28;20229;-88
2022/04/29 07:09:04;;;;;;;13.37;12.40;;;;;;;13.62;62.26;93365.50;5069561;28;20276;-81
2022/04/29 07:11:31;;;;;;;13.93;12.80;;;;;;;13.80;61.87;93351.66;5071141;28;20229;-86
2022/04/29 07:13:57;;;;;;;14.03;12.77;;;;;;;14.42;59.74;93348.81;5052271;28;20219;-92
2022/04/29 07:16:23;;;;;;;13.03;12.07;;;;;;;13.89;58.95;93329.78;5070391;28;20217;-86
2022/04/29 07:18:48;;;;;;;12.40;11.40;;;;;;;13.74;61.21;93343.03;5069781;28;20276;-86
2022/04/29 07:21:14;;;;;;;13.50;12.37;;;;;;;13.96;60.52;93358.31;5069445;28;20229;-89
2022/04/29 07:23:39;;;;;;;13.70;12.70;;;;;;;14.11;59.65;93343.16;5071975;28;20189;-81
2022/04/29 07:26:05;;;;;;;12.23;11.33;;;;;;;14.31;58.95;93356.06;5070492;28;20247;-81
2022/04/29 07:28:30;;;;;;;13.13;11.93;;;;;;;13.97;59.85;93317.84;5071964;28;20178;-81
2022/04/29 07:30:59;;;;;;;14.13;12.20;;;;;;;14.04;59.60;93334.81;5070590;28;20268;-82
2022/04/29 07:33:25;;;;;;;13.43;12.37;;;;;;;13.71;61.32;93353.34;5068421;28;20196;-84
2022/04/29 07:44:03;;;;;;;11.73;10.83;;;;;;;14.60;57.82;93349.91;5069386;28;20192;-82
2022/04/29 07:46:28;;;;;;;13.77;12.67;;;;;;;13.86;60.04;93330.34;5069612;28;20292;-85
2022/04/29 07:48:54;;;;;;;14.50;13.27;;;;;;;14.24;59.71;93357.47;5066098;28;20206;-82
2022/04/29 07:51:20;;;;;;;13.40;12.30;;;;;;;14.45;58.75;93364.00;5070105;28;20233;-82
2022/04/29 07:53:45;;;;;;;12.13;11.23;;;;;;;14.17;58.79;93360.41;5070138;28;20248;-81
2022/04/29 07:56:11;;;;;;;12.77;11.77;;;;;;;14.10;59.08;93328.44;5070021;28;20233;-87
2022/04/29 07:58:37;;;;;;;13.30;12.30;;;;;;;14.55;58.88;93345.50;5069755;28;20185;-83
2022/04/29 08:01:06;;;;;;;12.30;11.37;;;;;;;14.54;58.60;93345.78;5068508;28;20260;-81
2022/04/29 08:03:31;;;;;;;13.70;12.63;;;;;;;14.76;58.48;93356.47;5069707;28;20193;-83
2022/04/29 08:05:57;;;;;;;14.03;12.83;;;;;;;14.38;59.14;93355.72;5068653;28;20256;-81
2022/04/29 08:08:22;;;;;;;14.63;13.37;;;;;;;12.77;64.11;93338.16;5069896;28;21093;-82
2022/04/29 08:10:48;;;;;;;13.60;12.40;;;;;;;13.06;63.83;93339.00;5069637;28;20189;-81
2022/04/29 08:13:13;;;;;;;14.37;13.07;;;;;;;13.14;63.78;93341.03;5069905;28;20212;-86
2022/04/29 08:15:43;;;;;;;13.13;12.03;;;;;;;13.47;63.52;93363.81;5069215;28;20192;-82
2022/04/29 08:18:09;;;;;;;15.53;14.17;;;;;;;13.14;63.95;93337.63;5067471;28;20196;-86
2022/04/29 08:20:34;;;;;;;15.43;13.90;;;;;;;13.61;63.15;93366.56;5069237;28;20221;-84
2022/04/29 08:22:59;;;;;;;12.97;11.90;;;;;;;13.74;61.64;93347.53;5069784;28;20213;-87
2022/04/29 08:25:25;;;;;;;14.27;13.07;;;;;;;13.90;61.60;93335.81;5070277;28;20277;-86
2022/04/29 08:27:51;;;;;;;13.80;12.50;;;;;;;13.92;61.33;93334.47;5068890;28;20485;-88
2022/04/29 08:30:17;;;;;;;12.80;11.80;;;;;;;13.94;60.63;93342.06;5068133;28;20178;-87
2022/04/29 08:32:44;;;;;;;10.80;9.97;;;;;;;14.13;59.77;93342.88;5051296;28;20236;-90
2022/04/29 08:35:11;;;;;;;13.30;12.30;;;;;;;13.64;60.78;93348.41;5069247;28;20189;-90
2022/04/29 08:37:40;;;;;;;12.47;11.50;;;;;;;13.76;59.25;93343.56;5048873;28;20217;-89
2022/04/29 08:40:07;;;;;;;12.63;11.63;;;;;;;13.97;58.93;93349.38;5048682;28;20214;-87
2022/04/29 08:42:38;;;;;;;11.77;10.83;;;;;;;14.28;59.13;93347.94;5048742;28;20679;-86
2022/04/29 08:45:09;;;;;;;12.67;11.57;;;;;;;14.27;59.43;93355.03;5049282;28;20198;-86
2022/04/29 08:47:37;;;;;;;12.50;11.50;;;;;;;13.59;60.87;93353.72;5048070;28;20230;-86
2022/04/29 08:50:06;;;;;;;13.50;12.20;;;;;;;13.78;60.92;93349.31;5043014;28;20179;-84
2022/04/29 08:52:32;;;;;;;12.77;11.80;;;;;;;13.01;60.37;93312.06;5048542;28;20250;-88
2022/04/29 09:00:30;;;;;;;13.70;12.50;;;;;;;12.64;61.43;93333.53;5047788;28;20278;-88
2022/04/29 09:02:55;;;;;;;12.83;11.73;;;;;;;12.33;62.15;93291.06;5046336;28;20234;-85
2022/04/29 09:05:21;;;;;;;12.80;11.80;;;;;;;13.19;61.24;93330.50;5047041;28;20185;-85
2022/04/29 09:08:00;;;;;;;12.27;11.37;;;;;;;13.84;59.48;93342.94;5046015;28;20229;-86
2022/04/29 09:10:29;;;;;;;12.13;11.30;;;;;;;13.62;57.53;93337.41;5046742;28;20190;-90
2022/04/29 09:13:12;;;;;;;12.50;11.43;;;;;;;14.33;57.17;93335.53;5048954;28;20278;-87
2022/04/29 09:15:45;;;;;;;11.80;11.03;;;;;;;14.27;56.14;93336.66;5047697;28;20186;-87
2022/04/29 09:18:11;;;;;;;11.40;10.60;;;;;;;14.23;55.39;93319.88;5047432;28;20190;-88
2022/04/29 09:20:38;;;;;;;11.67;10.87;;;;;;;14.63;55.14;93313.28;5047217;28;20259;-86
2022/04/29 09:23:04;;;;;;;13.40;12.30;;;;;;;14.44;55.53;93325.69;5046081;28;20282;-86
2022/04/29 09:25:35;;;;;;;13.67;12.67;;;;;;;15.08;54.38;93330.22;5047386;28;20238;-86
2022/04/29 09:28:03;;;;;;;12.83;11.87;;;;;;;14.31;54.34;93311.41;5050054;28;20293;-83
2022/04/29 09:30:35;;;;;;;11.93;10.93;;;;;;;14.94;53.16;93324.91;5046911;28;20245;-84
2022/04/29 09:33:01;;;;;;;12.57;11.53;;;;;;;15.40;53.04;93330.22;5046672;28;20222;-82
2022/04/29 09:35:42;;;;;;;11.53;10.80;;;;;;;15.48;53.28;93334.81;5047432;28;20224;-83
2022/04/29 09:40:55;;;;;;;11.23;10.47;;;;;;;14.70;54.31;93329.50;5047180;28;20240;-83
2022/04/29 09:43:31;;;;;;;11.97;11.07;;;;;;;15.39;53.17;93318.16;5046848;28;20213;-82
2022/04/29 09:46:21;;;;;;;12.73;11.73;;;;;;;14.92;54.32;93326.28;5045533;28;20244;-82
2022/04/29 09:49:04;;;;;;;12.57;11.60;;;;;;;15.14;53.10;93319.34;5038051;28;20224;-85
2022/04/29 09:51:44;;;;;;;12.43;11.43;;;;;;;14.73;53.41;93331.56;5047039;28;20245;-84
2022/04/29 09:54:18;;;;;;;13.27;12.07;;;;;;;14.53;54.70;93308.19;5047833;28;20184;-87
2022/04/29 09:56:46;;;;;;;14.27;12.87;;;;;;;14.92;54.12;93332.31;5047598;28;20224;-85
2022/04/29 09:59:13;;;;;;;13.57;12.40;;;;;;;15.36;52.71;93326.59;5049747;28;20190;-87
2022/04/29 10:01:40;;;;;;;12.27;11.47;;;;;;;15.58;52.54;93324.13;5046653;28;20289;-84
2022/04/29 10:04:06;;;;;;;12.23;11.30;;;;;;;15.79;50.12;93283.97;5047054;28;20182;-87
2022/04/29 10:06:32;;;;;;;11.27;10.37;;;;;;;14.81;51.64;93288.06;5046633;28;20278;-89
2022/04/29 10:08:59;;;;;;;13.37;12.37;;;;;;;15.48;52.27;93322.47;5047610;28;20198;-85
2022/04/29 10:11:27;;;;;;;11.83;11.03;;;;;;;15.25;52.51;93309.41;5046899;28;20225;-84
2022/04/29 10:13:52;;;;;;;11.07;10.17;;;;;;;15.80;50.44;93295.25;5045799;28;20194;-82
2022/04/29 10:16:18;;;;;;;11.60;10.90;;;;;;;16.11;49.71;93317.28;5049944;28;20244;-80
2022/04/29 10:21:40;;;;;;;12.47;11.33;;;;;;;15.93;51.69;93283.94;5050047;28;20245;-84
2022/04/29 10:24:06;;;;;;;12.73;11.83;;;;;;;16.63;49.02;93313.31;5052022;28;20325;-85
2022/04/29 10:26:32;;;;;;;11.53;10.73;;;;;;;16.58;47.90;93300.22;5052587;28;20237;-82
2022/04/29 10:28:59;;;;;;;12.43;11.53;;;;;;;16.48;47.23;93303.88;5050874;28;20212;-83
2022/04/29 10:31:27;;;;;;;11.63;10.93;;;;;;;15.49;48.67;93267.94;5050287;28;20238;-84
2022/04/29 10:33:52;;;;;;;12.90;12.00;;;;;;;16.38;47.27;93308.56;5051839;28;20303;-82
2022/04/29 10:36:24;;;;;;;12.03;11.23;;;;;;;16.46;48.01;93287.59;5051401;28;20222;-81
2022/04/29 10:39:00;;;;;;;11.33;10.53;;;;;;;17.39;45.27;93311.19;5067303;28;20249;-85
2022/04/29 10:41:25;;;;;;;10.33;9.63;;;;;;;17.19;45.54;93298.50;5071045;28;20288;-81
2022/04/29 10:43:51;;;;;;;11.63;10.93;;;;;;;17.37;45.28;93310.72;5070920;28;20217;-81
2022/04/29 10:46:31;;;;;;;11.07;10.37;;;;;;;17.52;44.07;93315.66;5071662;28;20257;-80
2022/04/29 10:49:17;;;;;;;11.87;10.97;;;;;;;16.56;47.37;93297.13;5045045;28;20200;-80
2022/04/29 10:51:53;;;;;;;11.07;10.33;;;;;;;17.17;45.92;93290.09;5069344;28;20335;-82
2022/04/29 10:54:34;;;;;;;11.97;10.93;;;;;;;17.11;46.04;93298.44;5072027;28;20200;-83
2022/04/29 10:57:02;;;;;;;12.27;11.33;;;;;;;16.73;47.81;93290.09;5070968;28;20232;-84
2022/04/29 10:59:47;;;;;;;12.27;11.37;;;;;;;16.50;47.61;93290.41;5070645;28;20268;-84
2022/04/29 11:02:26;;;;;;;12.03;11.13;;;;;;;17.68;44.79;93267.72;5068350;28;20217;-88
2022/04/29 11:04:51;;;;;;;12.23;11.23;;;;;;;16.52;46.07;93278.47;5070992;28;20216;-93
2022/04/29 11:07:34;;;;;;;11.57;10.77;;;;;;;16.82;47.20;93264.59;5071144;28;20209;-92
2022/04/29 11:10:00;;;;;;;12.63;11.73;;;;;;;17.04;47.46;93261.16;5070699;28;20196;-88
2022/04/29 11:12:34;;;;;;;13.37;12.37;;;;;;;17.17;46.71;93270.84;5052473;28;20633;-89
2022/04/29 11:15:16;;;;;;;12.33;11.47;;;;;;;16.59;47.96;93264.91;5071106;28;20212;-88
2022/04/29 11:17:43;;;;;;;11.43;10.63;;;;;;;16.66;47.66;93266.03;5067828;28;20248;-84
2022/04/29 11:20:17;;;;;;;13.00;12.00;;;;;;;16.37;48.81;93263.00;5070446;28;20227;-91
2022/04/29 11:26:00;;;;;;;11.77;10.97;;;;;;;16.50;46.72;93240.34;5069032;28;20227;-90
2022/04/29 11:28:27;;;;;;;12.40;11.60;;;;;;;16.36;47.93;93258.78;5069311;28;20185;-85
2022/04/29 11:31:04;;;;;;;13.17;12.13;;;;;;;16.58;47.99;93258.84;5069216;28;22572;-86
2022/04/29 11:33:30;;;;;;;12.73;11.83;;;;;;;16.73;48.28;93247.16;5070371;28;20185;-86
2022/04/29 11:36:08;;;;;;;12.93;12.03;;;;;;;16.89;48.24;93254.41;5070933;28;20232;-89
2022/04/29 11:38:46;;;;;;;12.30;11.23;;;;;;;16.56;49.92;93257.59;5068464;28;20228;-86
2022/04/29 11:41:15;;;;;;;12.77;11.77;;;;;;;16.80;47.77;93250.94;5067573;28;20236;-83
2022/04/29 11:43:41;;;;;;;12.93;11.90;;;;;;;16.14;50.34;93226.34;5065051;28;20192;-85
2022/04/29 11:46:08;;;;;;;12.23;11.33;;;;;;;16.22;47.96;93202.69;5069006;28;20229;-88
2022/04/29 11:48:34;;;;;;;11.77;10.97;;;;;;;16.87;47.68;93246.00;5069686;28;20203;-91
2022/04/29 11:51:01;;;;;;;12.60;11.67;;;;;;;17.70;45.36;93242.53;5068580;28;20235;-91
2022/04/29 11:53:26;;;;;;;11.23;10.40;;;;;;;17.39;44.71;93220.66;5072163;28;20209;-88